createdAt,value
2019-05-18T00:00:55.520Z,17.87
2019-05-18T00:05:00.052Z,16.17
2019-05-18T00:09:05.651Z,15.17
2019-05-18T00:13:10.197Z,15.97
2019-05-18T00:17:24.990Z,15.93
2019-05-18T00:21:21.005Z,15.40
2019-05-18T00:25:25.507Z,19.50
2019-05-18T00:29:30.066Z,22.33
2019-05-18T00:33:34.688Z,22.73
2019-05-18T00:37:39.231Z,22.43
2019-05-18T00:41:45.596Z,20.30
2019-05-18T00:45:50.043Z,19.63
2019-05-18T00:49:54.605Z,22.87
2019-05-18T00:53:59.281Z,22.43
2019-05-18T00:58:03.863Z,25.43
2019-05-18T01:02:08.418Z,23.20
2019-05-18T01:06:12.944Z,19.40
2019-05-18T01:10:17.512Z,22.33
2019-05-18T01:14:22.069Z,19.70
2019-05-18T01:18:29.379Z,18.97
2019-05-18T01:22:33.996Z,19.70
2019-05-18T01:26:38.521Z,21.60
2019-05-18T01:30:43.176Z,18.50
2019-05-18T01:34:47.736Z,17.77
2019-05-18T01:38:52.300Z,20.67
2019-05-18T01:42:56.823Z,15.30
2019-05-18T01:47:01.454Z,17.00
2019-05-18T01:51:06.008Z,20.63
2019-05-18T01:55:10.668Z,19.30
2019-05-18T01:59:15.229Z,18.73
2019-05-18T02:03:19.758Z,17.43
2019-05-18T02:07:24.334Z,15.93
2019-05-18T02:11:28.885Z,21.90
2019-05-18T02:15:33.445Z,21.03
2019-05-18T02:19:38.014Z,20.47
2019-05-18T02:23:42.535Z,16.30
2019-05-18T02:27:47.088Z,21.27
2019-05-18T02:31:51.657Z,21.43
2019-05-18T02:35:56.210Z,21.43
2019-05-18T02:40:00.773Z,18.90
2019-05-18T02:44:05.876Z,23.13
2019-05-18T02:48:10.446Z,23.33
2019-05-18T02:52:14.990Z,22.87
2019-05-18T02:56:19.558Z,18.93
2019-05-18T03:00:24.305Z,22.63
2019-05-18T03:04:28.851Z,22.93
2019-05-18T03:08:33.412Z,22.17
2019-05-18T03:12:38.065Z,17.40
2019-05-18T03:16:42.616Z,22.13
2019-05-18T03:20:47.198Z,21.57
2019-05-18T03:24:51.664Z,22.47
2019-05-18T03:28:56.199Z,20.47
2019-05-18T03:33:00.806Z,19.43
2019-05-18T03:37:05.321Z,19.53
2019-05-18T03:41:09.883Z,19.20
2019-05-18T03:45:14.496Z,19.23
2019-05-18T03:49:26.699Z,20.97
2019-05-18T03:53:25.204Z,22.87
2019-05-18T03:57:29.809Z,20.90
2019-05-18T04:01:34.378Z,20.50
2019-05-18T04:05:38.937Z,17.47
2019-05-18T04:09:43.448Z,17.67
2019-05-18T04:13:48.062Z,19.87
2019-05-18T04:17:52.618Z,22.10
2019-05-18T04:21:57.186Z,22.83
2019-05-18T04:26:01.742Z,21.10
2019-05-18T04:30:06.774Z,22.10
2019-05-18T04:34:11.333Z,24.73
2019-05-18T04:38:15.919Z,23.37
2019-05-18T04:42:20.570Z,22.47
2019-05-18T04:46:25.173Z,25.33
2019-05-18T04:50:29.684Z,18.53
2019-05-18T04:54:34.258Z,21.43
2019-05-18T04:58:38.809Z,22.53
2019-05-18T05:02:43.386Z,24.00
2019-05-18T05:06:47.988Z,25.73
2019-05-18T05:10:52.524Z,24.47
2019-05-18T05:14:57.094Z,31.37
2019-05-18T05:19:01.715Z,24.93
2019-05-18T05:23:06.258Z,25.47
2019-05-18T05:27:10.848Z,34.45
2019-05-18T05:31:15.388Z,35.07
2019-05-18T05:35:19.973Z,35.33
2019-05-18T05:39:24.537Z,38.45
2019-05-18T05:43:29.216Z,38.95
2019-05-18T05:47:33.812Z,39.95
2019-05-18T05:51:38.349Z,38.78
2019-05-18T05:55:42.912Z,39.95
2019-05-18T05:59:47.485Z,42.27
2019-05-18T06:03:52.154Z,40.80
2019-05-18T06:07:56.717Z,40.20
2019-05-18T06:12:01.235Z,40.78
2019-05-18T06:16:05.845Z,37.42
2019-05-18T06:20:11.004Z,37.73
2019-05-18T06:24:15.583Z,35.10
2019-05-18T06:28:20.164Z,35.23
2019-05-18T06:32:24.711Z,33.13
2019-05-18T06:36:29.264Z,32.23
2019-05-18T06:40:33.820Z,26.47
2019-05-18T06:44:38.404Z,24.90
2019-05-18T06:48:43.012Z,25.08
2019-05-18T06:52:47.513Z,22.97
2019-05-18T06:56:52.492Z,21.30
2019-05-18T07:00:57.048Z,19.20
2019-05-18T07:05:03.954Z,19.57
2019-05-18T07:09:13.649Z,16.60
2019-05-18T07:13:15.424Z,16.63
2019-05-18T07:17:19.977Z,16.77
2019-05-18T07:21:24.557Z,16.17
2019-05-18T07:25:29.115Z,14.83
2019-05-18T07:29:33.656Z,14.67
2019-05-18T07:33:38.216Z,15.60
2019-05-18T07:37:42.764Z,13.03
2019-05-18T07:41:47.414Z,13.60
2019-05-18T07:45:52.043Z,13.63
2019-05-18T07:49:56.561Z,13.17
2019-05-18T07:54:01.126Z,10.73
2019-05-18T07:58:05.680Z,10.83
2019-05-18T08:02:10.236Z,9.73
2019-05-18T08:06:14.790Z,9.17
2019-05-18T08:10:25.941Z,9.33
2019-05-18T08:14:30.504Z,9.33
2019-05-18T08:18:35.067Z,8.27
2019-05-18T08:22:39.608Z,9.30
2019-05-18T08:26:44.177Z,8.90
2019-05-18T08:30:48.692Z,9.93
2019-05-18T08:34:53.274Z,9.30
2019-05-18T08:38:57.817Z,8.17
2019-05-18T08:43:02.378Z,9.90
2019-05-18T08:47:06.971Z,8.90
2019-05-18T08:51:11.505Z,8.87
2019-05-18T08:55:17.173Z,7.47
2019-05-18T08:59:21.708Z,6.57
2019-05-18T09:03:26.325Z,6.37
2019-05-18T09:07:30.875Z,7.03
2019-05-18T09:11:37.719Z,5.67
2019-05-18T09:15:42.264Z,6.50
2019-05-18T09:19:46.804Z,7.90
2019-05-18T09:23:51.538Z,6.70
2019-05-18T09:27:56.081Z,6.13
2019-05-18T09:32:00.599Z,6.47
2019-05-18T09:36:05.152Z,6.10
2019-05-18T09:40:10.316Z,6.70
2019-05-18T09:44:14.888Z,6.13
2019-05-18T09:48:19.433Z,7.33
2019-05-18T09:52:42.154Z,6.50
2019-05-18T09:56:30.149Z,5.90
2019-05-18T10:00:38.642Z,5.43
2019-05-18T10:04:40.925Z,5.17
2019-05-18T10:08:45.482Z,4.50
2019-05-18T10:12:50.040Z,4.10
2019-05-18T10:16:54.555Z,4.20
2019-05-18T10:20:59.106Z,4.77
2019-05-18T10:25:03.703Z,4.80
2019-05-18T10:29:08.232Z,5.70
2019-05-18T10:33:12.777Z,5.57
2019-05-18T10:37:17.285Z,4.97
2019-05-18T10:41:21.828Z,4.80
2019-05-18T10:45:26.423Z,4.30
2019-05-18T10:49:30.982Z,4.17
2019-05-18T10:53:35.504Z,4.47
2019-05-18T10:57:40.099Z,3.93
2019-05-18T11:01:44.734Z,4.40
2019-05-18T11:05:49.284Z,4.40
2019-05-18T11:09:53.824Z,3.60
2019-05-18T11:13:58.323Z,5.00
2019-05-18T11:18:02.878Z,4.10
2019-05-18T11:22:07.425Z,4.20
2019-05-18T11:26:11.974Z,3.77
2019-05-18T11:30:17.119Z,3.53
2019-05-18T11:34:21.625Z,3.63
2019-05-18T11:38:26.176Z,3.67
2019-05-18T11:42:30.728Z,3.40
2019-05-18T11:46:35.309Z,3.40
2019-05-18T11:50:39.850Z,3.50
2019-05-18T11:54:44.367Z,3.17
2019-05-18T11:58:48.918Z,2.90
2019-05-18T12:02:53.487Z,2.97
2019-05-18T12:06:58.026Z,3.20
2019-05-18T12:11:02.584Z,3.33
2019-05-18T12:15:07.560Z,2.63
2019-05-18T12:19:12.109Z,2.63
2019-05-18T12:23:16.656Z,2.50
2019-05-18T12:27:21.203Z,1.90
2019-05-18T12:31:25.753Z,1.70
2019-05-18T12:35:30.272Z,2.73
2019-05-18T12:39:34.821Z,2.83
2019-05-18T12:43:39.375Z,2.30
2019-05-18T12:47:43.957Z,2.80
2019-05-18T12:51:48.508Z,2.60
2019-05-18T12:55:53.021Z,2.67
2019-05-18T12:59:57.767Z,2.50
2019-05-18T13:04:02.309Z,3.40
2019-05-18T13:08:06.871Z,3.03
2019-05-18T13:12:11.867Z,2.67
2019-05-18T13:16:16.444Z,3.50
2019-05-18T13:20:21.309Z,3.33
2019-05-18T13:24:25.845Z,3.10
2019-05-18T13:28:30.389Z,2.80
2019-05-18T13:32:34.954Z,2.90
2019-05-18T13:36:39.470Z,2.80
2019-05-18T13:40:44.001Z,3.17
2019-05-18T13:44:48.587Z,3.20
2019-05-18T13:48:53.127Z,3.40
2019-05-18T13:52:57.674Z,3.10
2019-05-18T13:57:02.221Z,2.90
2019-05-18T14:01:06.770Z,3.13
2019-05-18T14:05:12.017Z,3.10
2019-05-18T14:09:16.566Z,3.30
2019-05-18T14:13:21.123Z,2.80
2019-05-18T14:17:25.642Z,2.60
2019-05-18T14:21:30.196Z,3.00
2019-05-18T14:25:34.751Z,2.70
2019-05-18T14:29:39.293Z,2.70
2019-05-18T14:33:43.908Z,2.50
2019-05-18T14:37:48.447Z,2.40
2019-05-18T14:41:52.969Z,2.90
2019-05-18T14:45:57.552Z,2.57
2019-05-18T14:50:02.096Z,2.20
2019-05-18T14:54:06.664Z,2.00
2019-05-18T14:58:11.166Z,1.83
2019-05-18T15:02:15.713Z,2.00
2019-05-18T15:06:20.281Z,2.20
2019-05-18T15:10:24.829Z,2.10
2019-05-18T15:14:29.381Z,2.00
2019-05-18T15:18:33.901Z,1.80
2019-05-18T15:22:38.634Z,1.90
2019-05-18T15:26:43.177Z,1.93
2019-05-18T15:30:47.713Z,2.13
2019-05-18T15:34:52.258Z,2.20
2019-05-18T15:38:56.768Z,1.97
2019-05-18T15:43:01.355Z,1.73
2019-05-18T15:47:05.982Z,2.00
2019-05-18T15:51:10.636Z,2.10
2019-05-18T15:55:15.257Z,2.10
2019-05-18T15:59:19.762Z,2.20
2019-05-18T16:03:24.301Z,2.00
2019-05-18T16:07:28.847Z,2.23
2019-05-18T16:11:33.405Z,2.03
2019-05-18T16:15:37.919Z,1.80
2019-05-18T16:19:42.453Z,1.70
2019-05-18T16:23:46.961Z,2.30
2019-05-18T16:27:51.518Z,1.93
2019-05-18T16:31:56.030Z,2.37
2019-05-18T16:36:00.562Z,2.40
2019-05-18T16:40:05.427Z,2.30
2019-05-18T16:44:10.003Z,2.67
2019-05-18T16:48:14.531Z,2.83
2019-05-18T16:52:19.058Z,2.63
2019-05-18T16:56:34.567Z,2.90
2019-05-18T17:00:29.777Z,2.93
2019-05-18T17:04:34.287Z,3.23
2019-05-18T17:08:38.841Z,2.93
2019-05-18T17:12:43.369Z,3.47
2019-05-18T17:16:47.929Z,3.27
2019-05-18T17:20:52.434Z,3.37
2019-05-18T17:24:56.929Z,3.47
2019-05-18T17:29:01.450Z,3.23
2019-05-18T17:33:05.983Z,3.50
2019-05-18T17:37:10.509Z,3.60
2019-05-18T17:41:15.045Z,3.73
2019-05-18T17:45:19.617Z,3.10
2019-05-18T17:49:26.716Z,3.30
2019-05-18T17:53:30.358Z,3.50
2019-05-18T17:57:34.916Z,3.63
2019-05-18T18:01:39.860Z,3.60
2019-05-18T18:05:44.376Z,3.20
2019-05-18T18:09:48.945Z,3.30
2019-05-18T18:13:53.629Z,3.70
2019-05-18T18:17:58.186Z,3.77
2019-05-18T18:22:02.724Z,3.00
2019-05-18T18:26:07.337Z,3.17
2019-05-18T18:30:12.083Z,3.30
2019-05-18T18:34:16.702Z,3.57
2019-05-18T18:38:21.248Z,3.33
2019-05-18T18:42:25.888Z,3.83
2019-05-18T18:46:30.468Z,3.77
2019-05-18T18:50:35.030Z,3.63
2019-05-18T18:54:39.594Z,4.00
2019-05-18T18:58:44.162Z,4.07
2019-05-18T19:02:48.660Z,3.53
2019-05-18T19:06:53.221Z,3.80
2019-05-18T19:10:57.773Z,3.83
2019-05-18T19:15:02.377Z,3.60
2019-05-18T19:19:07.013Z,3.20
2019-05-18T19:23:11.574Z,3.33
2019-05-18T19:27:16.140Z,3.00
2019-05-18T19:31:20.726Z,4.37
2019-05-18T19:35:25.305Z,3.63
2019-05-18T19:39:29.866Z,3.93
2019-05-18T19:43:34.425Z,3.90
2019-05-18T19:47:39.026Z,4.50
2019-05-18T19:51:43.593Z,4.13
2019-05-18T19:55:48.156Z,3.57
2019-05-18T19:59:52.665Z,3.90
2019-05-18T20:03:57.225Z,4.13
2019-05-18T20:08:01.789Z,4.33
2019-05-18T20:12:07.189Z,4.77
2019-05-18T20:16:11.814Z,5.03
2019-05-18T20:20:16.864Z,4.73
2019-05-18T20:24:21.449Z,4.27
2019-05-18T20:28:26.017Z,4.73
2019-05-18T20:32:30.578Z,5.70
2019-05-18T20:36:35.142Z,7.30
2019-05-18T20:40:39.680Z,7.53
2019-05-18T20:44:44.285Z,7.20
2019-05-18T20:48:48.859Z,7.50
2019-05-18T20:52:53.424Z,7.17
2019-05-18T20:56:57.974Z,7.10
2019-05-18T21:01:02.526Z,7.93
2019-05-18T21:05:07.432Z,7.23
2019-05-18T21:09:12.013Z,7.97
2019-05-18T21:13:16.682Z,7.83
2019-05-18T21:17:21.272Z,7.80
2019-05-18T21:21:26.733Z,6.53
2019-05-18T21:25:31.583Z,7.67
2019-05-18T21:29:36.130Z,6.13
2019-05-18T21:33:40.717Z,5.73
2019-05-18T21:37:45.310Z,5.53
2019-05-18T21:41:49.842Z,4.73
2019-05-18T21:45:54.437Z,5.43
2019-05-18T21:49:59.010Z,7.17
2019-05-18T21:54:03.582Z,6.37
2019-05-18T21:58:08.124Z,5.60
2019-05-18T22:02:12.856Z,5.87
2019-05-18T22:06:17.417Z,6.30
2019-05-18T22:10:25.907Z,6.47
2019-05-18T22:14:28.177Z,7.20
2019-05-18T22:18:32.725Z,6.60
2019-05-18T22:22:37.239Z,7.12
2019-05-18T22:26:41.773Z,7.58
2019-05-18T22:30:46.342Z,7.97
2019-05-18T22:34:50.916Z,8.05
2019-05-18T22:38:55.488Z,7.73
2019-05-18T22:42:59.979Z,8.03
2019-05-18T22:47:04.558Z,7.60
2019-05-18T22:51:09.142Z,6.90
2019-05-18T22:55:13.826Z,7.58
2019-05-18T22:59:18.429Z,7.23
2019-05-18T23:03:22.969Z,6.37
2019-05-18T23:07:27.526Z,6.72
2019-05-18T23:11:32.069Z,6.58
2019-05-18T23:15:36.681Z,6.62
2019-05-18T23:19:41.236Z,7.33
2019-05-18T23:23:45.765Z,7.10
2019-05-18T23:27:50.351Z,7.00
2019-05-18T23:31:54.937Z,6.70
2019-05-18T23:35:59.533Z,5.75
2019-05-18T23:40:04.340Z,6.43
2019-05-18T23:44:08.888Z,6.12
2019-05-18T23:48:13.474Z,6.87
2019-05-18T23:52:18.143Z,4.60
2019-05-18T23:56:22.732Z,6.47
